sensor_id;sensor_type;location;lat;lon;timestamp;P1;durP1;ratioP1;P2;durP2;ratioP2
23988;SDS011;12202;52.136;5.592;2022-08-16T00:00:47;34.47;;;22.70;;
23988;SDS011;12202;52.136;5.592;2022-08-16T00:03:13;28.95;;;23.17;;
23988;SDS011;12202;52.136;5.592;2022-08-16T00:05:39;34.22;;;25.10;;
23988;SDS011;12202;52.136;5.592;2022-08-16T00:08:05;36.33;;;24.67;;
23988;SDS011;12202;52.136;5.592;2022-08-16T00:10:31;34.55;;;24.92;;
23988;SDS011;12202;52.136;5.592;2022-08-16T00:12:58;32.65;;;23.70;;
23988;SDS011;12202;52.136;5.592;2022-08-16T00:15:26;31.92;;;24.02;;
23988;SDS011;12202;52.136;5.592;2022-08-16T00:17:53;32.65;;;22.85;;
23988;SDS011;12202;52.136;5.592;2022-08-16T00:20:19;33.45;;;24.38;;
23988;SDS011;12202;52.136;5.592;2022-08-16T00:22:46;33.10;;;22.75;;
23988;SDS011;12202;52.136;5.592;2022-08-16T00:25:13;31.17;;;25.00;;
23988;SDS011;12202;52.136;5.592;2022-08-16T00:27:39;38.17;;;24.30;;
23988;SDS011;12202;52.136;5.592;2022-08-16T00:30:06;30.52;;;24.23;;
23988;SDS011;12202;52.136;5.592;2022-08-16T00:32:33;31.42;;;24.48;;
23988;SDS011;12202;52.136;5.592;2022-08-16T00:34:59;33.20;;;24.25;;
23988;SDS011;12202;52.136;5.592;2022-08-16T00:37:25;32.47;;;22.88;;
23988;SDS011;12202;52.136;5.592;2022-08-16T00:39:52;35.28;;;23.58;;
23988;SDS011;12202;52.136;5.592;2022-08-16T00:42:18;35.65;;;23.02;;
23988;SDS011;12202;52.136;5.592;2022-08-16T00:44:45;33.20;;;24.45;;
23988;SDS011;12202;52.136;5.592;2022-08-16T00:47:15;33.00;;;24.33;;
23988;SDS011;12202;52.136;5.592;2022-08-16T00:49:41;39.13;;;23.20;;
23988;SDS011;12202;52.136;5.592;2022-08-16T00:52:07;36.67;;;26.83;;
23988;SDS011;12202;52.136;5.592;2022-08-16T00:54:33;35.25;;;25.25;;
23988;SDS011;12202;52.136;5.592;2022-08-16T00:56:59;30.58;;;24.15;;
23988;SDS011;12202;52.136;5.592;2022-08-16T00:59:30;35.50;;;24.83;;
23988;SDS011;12202;52.136;5.592;2022-08-16T01:01:56;35.03;;;23.45;;
23988;SDS011;12202;52.136;5.592;2022-08-16T01:04:23;34.20;;;23.15;;
23988;SDS011;12202;52.136;5.592;2022-08-16T01:06:50;32.47;;;23.63;;
23988;SDS011;12202;52.136;5.592;2022-08-16T01:09:16;33.42;;;24.35;;
23988;SDS011;12202;52.136;5.592;2022-08-16T01:11:43;38.03;;;25.70;;
23988;SDS011;12202;52.136;5.592;2022-08-16T01:14:20;37.08;;;25.10;;
23988;SDS011;12202;52.136;5.592;2022-08-16T01:16:48;33.65;;;23.73;;
23988;SDS011;12202;52.136;5.592;2022-08-16T01:19:32;33.83;;;25.08;;
23988;SDS011;12202;52.136;5.592;2022-08-16T01:22:00;34.85;;;24.58;;
23988;SDS011;12202;52.136;5.592;2022-08-16T01:24:41;34.92;;;23.40;;
23988;SDS011;12202;52.136;5.592;2022-08-16T01:27:16;30.55;;;24.25;;
23988;SDS011;12202;52.136;5.592;2022-08-16T01:32:21;31.77;;;23.83;;
23988;SDS011;12202;52.136;5.592;2022-08-16T01:34:47;31.63;;;21.77;;
23988;SDS011;12202;52.136;5.592;2022-08-16T01:37:13;33.38;;;25.98;;
23988;SDS011;12202;52.136;5.592;2022-08-16T01:39:39;35.97;;;25.75;;
23988;SDS011;12202;52.136;5.592;2022-08-16T01:42:05;32.97;;;23.40;;
23988;SDS011;12202;52.136;5.592;2022-08-16T01:44:33;37.67;;;25.33;;
23988;SDS011;12202;52.136;5.592;2022-08-16T01:46:59;39.80;;;26.00;;
23988;SDS011;12202;52.136;5.592;2022-08-16T01:49:27;33.65;;;26.25;;
23988;SDS011;12202;52.136;5.592;2022-08-16T01:51:55;36.88;;;28.75;;
23988;SDS011;12202;52.136;5.592;2022-08-16T01:54:21;39.08;;;27.70;;
23988;SDS011;12202;52.136;5.592;2022-08-16T01:56:47;31.80;;;24.70;;
23988;SDS011;12202;52.136;5.592;2022-08-16T01:59:14;31.13;;;25.40;;
23988;SDS011;12202;52.136;5.592;2022-08-16T02:01:40;33.05;;;24.38;;
23988;SDS011;12202;52.136;5.592;2022-08-16T02:04:06;35.72;;;26.15;;
23988;SDS011;12202;52.136;5.592;2022-08-16T02:06:32;36.97;;;26.45;;
23988;SDS011;12202;52.136;5.592;2022-08-16T02:08:58;33.47;;;24.92;;
23988;SDS011;12202;52.136;5.592;2022-08-16T02:11:25;39.97;;;27.35;;
23988;SDS011;12202;52.136;5.592;2022-08-16T02:13:51;36.00;;;26.65;;
23988;SDS011;12202;52.136;5.592;2022-08-16T02:16:18;37.25;;;24.77;;
23988;SDS011;12202;52.136;5.592;2022-08-16T02:18:44;42.25;;;27.05;;
23988;SDS011;12202;52.136;5.592;2022-08-16T02:21:10;35.35;;;25.60;;
23988;SDS011;12202;52.136;5.592;2022-08-16T02:23:37;36.58;;;26.52;;
23988;SDS011;12202;52.136;5.592;2022-08-16T02:26:03;32.75;;;26.70;;
23988;SDS011;12202;52.136;5.592;2022-08-16T02:28:30;34.80;;;25.42;;
23988;SDS011;12202;52.136;5.592;2022-08-16T02:30:57;42.60;;;27.80;;
23988;SDS011;12202;52.136;5.592;2022-08-16T02:33:23;33.13;;;27.00;;
23988;SDS011;12202;52.136;5.592;2022-08-16T02:35:49;42.20;;;29.27;;
23988;SDS011;12202;52.136;5.592;2022-08-16T02:38:15;42.17;;;27.65;;
23988;SDS011;12202;52.136;5.592;2022-08-16T02:40:41;47.42;;;28.90;;
23988;SDS011;12202;52.136;5.592;2022-08-16T02:43:07;38.53;;;28.52;;
23988;SDS011;12202;52.136;5.592;2022-08-16T02:45:33;38.75;;;26.05;;
23988;SDS011;12202;52.136;5.592;2022-08-16T02:47:59;37.30;;;28.00;;
23988;SDS011;12202;52.136;5.592;2022-08-16T02:50:25;38.45;;;28.63;;
23988;SDS011;12202;52.136;5.592;2022-08-16T02:52:51;43.97;;;28.33;;
23988;SDS011;12202;52.136;5.592;2022-08-16T02:55:18;39.28;;;27.85;;
23988;SDS011;12202;52.136;5.592;2022-08-16T02:57:44;37.75;;;26.10;;
23988;SDS011;12202;52.136;5.592;2022-08-16T03:00:11;43.45;;;29.15;;
23988;SDS011;12202;52.136;5.592;2022-08-16T03:02:38;41.75;;;28.27;;
23988;SDS011;12202;52.136;5.592;2022-08-16T03:05:05;43.80;;;27.88;;
23988;SDS011;12202;52.136;5.592;2022-08-16T03:07:31;44.50;;;29.88;;
23988;SDS011;12202;52.136;5.592;2022-08-16T03:09:57;41.65;;;30.58;;
23988;SDS011;12202;52.136;5.592;2022-08-16T03:12:23;47.15;;;31.73;;
23988;SDS011;12202;52.136;5.592;2022-08-16T03:14:50;46.97;;;31.25;;
23988;SDS011;12202;52.136;5.592;2022-08-16T03:17:16;45.67;;;30.35;;
23988;SDS011;12202;52.136;5.592;2022-08-16T03:19:42;40.65;;;29.60;;
23988;SDS011;12202;52.136;5.592;2022-08-16T03:22:08;38.22;;;28.50;;
23988;SDS011;12202;52.136;5.592;2022-08-16T03:24:34;41.20;;;28.42;;
23988;SDS011;12202;52.136;5.592;2022-08-16T03:27:00;43.88;;;30.58;;
23988;SDS011;12202;52.136;5.592;2022-08-16T03:29:28;56.90;;;34.53;;
23988;SDS011;12202;52.136;5.592;2022-08-16T03:31:55;45.67;;;31.67;;
23988;SDS011;12202;52.136;5.592;2022-08-16T03:34:21;44.20;;;31.08;;
23988;SDS011;12202;52.136;5.592;2022-08-16T03:36:47;43.10;;;30.45;;
23988;SDS011;12202;52.136;5.592;2022-08-16T03:39:13;50.70;;;32.10;;
23988;SDS011;12202;52.136;5.592;2022-08-16T03:41:39;44.40;;;31.77;;
23988;SDS011;12202;52.136;5.592;2022-08-16T03:44:05;40.28;;;29.67;;
23988;SDS011;12202;52.136;5.592;2022-08-16T03:46:32;43.47;;;31.08;;
23988;SDS011;12202;52.136;5.592;2022-08-16T03:48:58;53.28;;;32.47;;
23988;SDS011;12202;52.136;5.592;2022-08-16T03:51:24;48.75;;;31.67;;
23988;SDS011;12202;52.136;5.592;2022-08-16T03:53:51;43.78;;;30.92;;
23988;SDS011;12202;52.136;5.592;2022-08-16T03:56:17;45.03;;;30.77;;
23988;SDS011;12202;52.136;5.592;2022-08-16T03:58:43;45.42;;;29.48;;
23988;SDS011;12202;52.136;5.592;2022-08-16T04:01:10;43.75;;;29.35;;
23988;SDS011;12202;52.136;5.592;2022-08-16T04:03:35;41.63;;;29.63;;
23988;SDS011;12202;52.136;5.592;2022-08-16T04:06:02;46.88;;;31.20;;
23988;SDS011;12202;52.136;5.592;2022-08-16T04:08:29;44.13;;;29.58;;
23988;SDS011;12202;52.136;5.592;2022-08-16T04:10:56;44.20;;;28.73;;
23988;SDS011;12202;52.136;5.592;2022-08-16T04:13:22;40.88;;;28.90;;
23988;SDS011;12202;52.136;5.592;2022-08-16T04:15:48;45.67;;;30.80;;
23988;SDS011;12202;52.136;5.592;2022-08-16T04:18:14;47.50;;;31.25;;
23988;SDS011;12202;52.136;5.592;2022-08-16T04:20:41;46.35;;;31.85;;
23988;SDS011;12202;52.136;5.592;2022-08-16T04:23:07;37.70;;;26.45;;
23988;SDS011;12202;52.136;5.592;2022-08-16T04:25:33;45.63;;;31.73;;
23988;SDS011;12202;52.136;5.592;2022-08-16T04:27:59;49.47;;;31.52;;
23988;SDS011;12202;52.136;5.592;2022-08-16T04:30:25;44.67;;;31.85;;
23988;SDS011;12202;52.136;5.592;2022-08-16T04:32:51;57.97;;;34.78;;
23988;SDS011;12202;52.136;5.592;2022-08-16T04:35:18;57.60;;;35.90;;
23988;SDS011;12202;52.136;5.592;2022-08-16T04:37:45;53.85;;;34.92;;
23988;SDS011;12202;52.136;5.592;2022-08-16T04:40:11;52.65;;;34.65;;
23988;SDS011;12202;52.136;5.592;2022-08-16T04:42:37;63.15;;;36.67;;
23988;SDS011;12202;52.136;5.592;2022-08-16T04:45:05;55.60;;;36.45;;
23988;SDS011;12202;52.136;5.592;2022-08-16T04:47:32;51.72;;;33.80;;
23988;SDS011;12202;52.136;5.592;2022-08-16T04:49:59;59.17;;;37.83;;
23988;SDS011;12202;52.136;5.592;2022-08-16T04:52:25;51.47;;;32.97;;
23988;SDS011;12202;52.136;5.592;2022-08-16T04:54:51;53.03;;;34.97;;
23988;SDS011;12202;52.136;5.592;2022-08-16T04:57:17;53.03;;;35.42;;
23988;SDS011;12202;52.136;5.592;2022-08-16T04:59:43;50.13;;;34.63;;
23988;SDS011;12202;52.136;5.592;2022-08-16T05:02:09;57.75;;;36.55;;
23988;SDS011;12202;52.136;5.592;2022-08-16T05:04:35;54.72;;;36.55;;
23988;SDS011;12202;52.136;5.592;2022-08-16T05:07:01;48.65;;;33.65;;
23988;SDS011;12202;52.136;5.592;2022-08-16T05:09:27;53.30;;;35.13;;
23988;SDS011;12202;52.136;5.592;2022-08-16T05:11:53;61.75;;;42.55;;
23988;SDS011;12202;52.136;5.592;2022-08-16T05:14:19;59.92;;;41.53;;
23988;SDS011;12202;52.136;5.592;2022-08-16T05:16:45;60.05;;;42.40;;
23988;SDS011;12202;52.136;5.592;2022-08-16T05:19:11;72.43;;;44.75;;
23988;SDS011;12202;52.136;5.592;2022-08-16T05:21:37;62.83;;;41.38;;
23988;SDS011;12202;52.136;5.592;2022-08-16T05:24:03;55.65;;;38.88;;
23988;SDS011;12202;52.136;5.592;2022-08-16T05:26:30;57.03;;;40.15;;
23988;SDS011;12202;52.136;5.592;2022-08-16T05:28:57;57.60;;;37.50;;
23988;SDS011;12202;52.136;5.592;2022-08-16T05:31:27;56.47;;;37.70;;
23988;SDS011;12202;52.136;5.592;2022-08-16T05:33:53;54.45;;;35.70;;
23988;SDS011;12202;52.136;5.592;2022-08-16T05:36:19;67.10;;;43.60;;
23988;SDS011;12202;52.136;5.592;2022-08-16T05:38:45;94.90;;;62.55;;
23988;SDS011;12202;52.136;5.592;2022-08-16T05:41:12;103.72;;;69.53;;
23988;SDS011;12202;52.136;5.592;2022-08-16T05:43:38;119.72;;;75.93;;
23988;SDS011;12202;52.136;5.592;2022-08-16T05:46:04;117.32;;;76.05;;
23988;SDS011;12202;52.136;5.592;2022-08-16T05:48:30;127.85;;;82.32;;
23988;SDS011;12202;52.136;5.592;2022-08-16T05:50:56;130.63;;;86.07;;
23988;SDS011;12202;52.136;5.592;2022-08-16T05:53:22;130.93;;;86.18;;
23988;SDS011;12202;52.136;5.592;2022-08-16T05:55:48;120.85;;;73.35;;
23988;SDS011;12202;52.136;5.592;2022-08-16T05:58:14;108.55;;;70.18;;
23988;SDS011;12202;52.136;5.592;2022-08-16T06:00:40;95.28;;;62.83;;
23988;SDS011;12202;52.136;5.592;2022-08-16T06:03:06;87.13;;;59.28;;
23988;SDS011;12202;52.136;5.592;2022-08-16T06:05:32;88.82;;;58.38;;
23988;SDS011;12202;52.136;5.592;2022-08-16T06:07:58;80.70;;;50.92;;
23988;SDS011;12202;52.136;5.592;2022-08-16T06:10:24;71.07;;;46.08;;
23988;SDS011;12202;52.136;5.592;2022-08-16T06:12:50;73.63;;;45.72;;
23988;SDS011;12202;52.136;5.592;2022-08-16T06:15:17;73.68;;;45.88;;
23988;SDS011;12202;52.136;5.592;2022-08-16T06:17:44;71.38;;;42.10;;
23988;SDS011;12202;52.136;5.592;2022-08-16T06:20:17;60.58;;;40.10;;
23988;SDS011;12202;52.136;5.592;2022-08-16T06:22:44;57.08;;;39.45;;
23988;SDS011;12202;52.136;5.592;2022-08-16T06:25:10;64.15;;;41.55;;
23988;SDS011;12202;52.136;5.592;2022-08-16T06:27:36;57.05;;;39.17;;
23988;SDS011;12202;52.136;5.592;2022-08-16T06:30:04;60.35;;;41.22;;
23988;SDS011;12202;52.136;5.592;2022-08-16T06:32:30;62.65;;;41.97;;
23988;SDS011;12202;52.136;5.592;2022-08-16T06:34:56;58.17;;;40.47;;
23988;SDS011;12202;52.136;5.592;2022-08-16T06:37:22;62.28;;;41.75;;
23988;SDS011;12202;52.136;5.592;2022-08-16T06:39:48;61.47;;;42.47;;
23988;SDS011;12202;52.136;5.592;2022-08-16T06:42:14;59.80;;;41.78;;
23988;SDS011;12202;52.136;5.592;2022-08-16T06:44:40;64.40;;;43.65;;
23988;SDS011;12202;52.136;5.592;2022-08-16T06:47:06;61.35;;;42.90;;
23988;SDS011;12202;52.136;5.592;2022-08-16T06:49:32;58.72;;;40.47;;
23988;SDS011;12202;52.136;5.592;2022-08-16T06:51:58;61.97;;;40.88;;
23988;SDS011;12202;52.136;5.592;2022-08-16T06:54:24;54.35;;;38.42;;
23988;SDS011;12202;52.136;5.592;2022-08-16T06:56:50;59.50;;;40.42;;
23988;SDS011;12202;52.136;5.592;2022-08-16T06:59:16;55.17;;;39.05;;
23988;SDS011;12202;52.136;5.592;2022-08-16T07:01:42;59.15;;;42.05;;
23988;SDS011;12202;52.136;5.592;2022-08-16T07:04:08;53.72;;;40.83;;
23988;SDS011;12202;52.136;5.592;2022-08-16T07:06:34;57.97;;;40.72;;
23988;SDS011;12202;52.136;5.592;2022-08-16T07:09:00;57.42;;;39.35;;
23988;SDS011;12202;52.136;5.592;2022-08-16T07:11:26;55.60;;;39.60;;
23988;SDS011;12202;52.136;5.592;2022-08-16T07:13:52;52.22;;;38.42;;
23988;SDS011;12202;52.136;5.592;2022-08-16T07:16:18;56.22;;;41.67;;
23988;SDS011;12202;52.136;5.592;2022-08-16T07:18:45;61.72;;;42.35;;
23988;SDS011;12202;52.136;5.592;2022-08-16T07:21:11;57.90;;;40.45;;
23988;SDS011;12202;52.136;5.592;2022-08-16T07:23:38;61.42;;;41.75;;
23988;SDS011;12202;52.136;5.592;2022-08-16T07:26:06;60.63;;;43.78;;
23988;SDS011;12202;52.136;5.592;2022-08-16T07:28:32;58.70;;;41.13;;
23988;SDS011;12202;52.136;5.592;2022-08-16T07:30:59;59.10;;;40.15;;
23988;SDS011;12202;52.136;5.592;2022-08-16T07:33:27;50.72;;;37.63;;
23988;SDS011;12202;52.136;5.592;2022-08-16T07:35:53;52.30;;;36.30;;
23988;SDS011;12202;52.136;5.592;2022-08-16T07:38:19;51.65;;;36.60;;
23988;SDS011;12202;52.136;5.592;2022-08-16T07:40:45;50.25;;;36.75;;
23988;SDS011;12202;52.136;5.592;2022-08-16T07:43:10;46.05;;;34.22;;
23988;SDS011;12202;52.136;5.592;2022-08-16T07:45:36;54.38;;;33.42;;
23988;SDS011;12202;52.136;5.592;2022-08-16T07:48:02;45.10;;;32.63;;
23988;SDS011;12202;52.136;5.592;2022-08-16T07:50:28;47.08;;;33.83;;
23988;SDS011;12202;52.136;5.592;2022-08-16T07:52:54;50.65;;;33.17;;
23988;SDS011;12202;52.136;5.592;2022-08-16T07:55:20;46.45;;;31.52;;
23988;SDS011;12202;52.136;5.592;2022-08-16T07:57:46;41.13;;;30.20;;
23988;SDS011;12202;52.136;5.592;2022-08-16T08:00:12;39.35;;;29.27;;
23988;SDS011;12202;52.136;5.592;2022-08-16T08:02:38;37.92;;;28.10;;
23988;SDS011;12202;52.136;5.592;2022-08-16T08:05:05;38.17;;;27.42;;
23988;SDS011;12202;52.136;5.592;2022-08-16T08:07:31;38.97;;;26.15;;
23988;SDS011;12202;52.136;5.592;2022-08-16T08:09:57;36.33;;;25.48;;
23988;SDS011;12202;52.136;5.592;2022-08-16T08:12:23;36.20;;;23.73;;
23988;SDS011;12202;52.136;5.592;2022-08-16T08:14:49;40.30;;;28.25;;
23988;SDS011;12202;52.136;5.592;2022-08-16T08:17:15;35.30;;;25.30;;
23988;SDS011;12202;52.136;5.592;2022-08-16T08:19:41;31.20;;;22.75;;
23988;SDS011;12202;52.136;5.592;2022-08-16T08:22:09;33.95;;;24.10;;
23988;SDS011;12202;52.136;5.592;2022-08-16T08:24:35;33.28;;;23.67;;
23988;SDS011;12202;52.136;5.592;2022-08-16T08:27:03;34.40;;;24.63;;
23988;SDS011;12202;52.136;5.592;2022-08-16T08:29:30;46.22;;;24.65;;
23988;SDS011;12202;52.136;5.592;2022-08-16T08:31:56;34.17;;;24.13;;
23988;SDS011;12202;52.136;5.592;2022-08-16T08:34:22;33.60;;;23.30;;
23988;SDS011;12202;52.136;5.592;2022-08-16T08:36:49;31.10;;;21.10;;
23988;SDS011;12202;52.136;5.592;2022-08-16T08:39:15;34.55;;;23.27;;
23988;SDS011;12202;52.136;5.592;2022-08-16T08:41:42;27.85;;;20.90;;
23988;SDS011;12202;52.136;5.592;2022-08-16T08:44:11;28.10;;;21.25;;
23988;SDS011;12202;52.136;5.592;2022-08-16T08:46:37;31.23;;;22.52;;
23988;SDS011;12202;52.136;5.592;2022-08-16T08:49:03;33.20;;;24.55;;
23988;SDS011;12202;52.136;5.592;2022-08-16T08:51:32;29.60;;;22.95;;
23988;SDS011;12202;52.136;5.592;2022-08-16T08:53:58;34.42;;;24.75;;
23988;SDS011;12202;52.136;5.592;2022-08-16T08:56:24;27.42;;;21.42;;
23988;SDS011;12202;52.136;5.592;2022-08-16T08:58:54;31.02;;;20.70;;
23988;SDS011;12202;52.136;5.592;2022-08-16T09:01:31;29.45;;;21.33;;
23988;SDS011;12202;52.136;5.592;2022-08-16T09:03:58;32.90;;;23.63;;
23988;SDS011;12202;52.136;5.592;2022-08-16T09:06:24;32.55;;;26.20;;
23988;SDS011;12202;52.136;5.592;2022-08-16T09:08:50;31.75;;;25.88;;
23988;SDS011;12202;52.136;5.592;2022-08-16T09:11:16;36.75;;;25.73;;
23988;SDS011;12202;52.136;5.592;2022-08-16T09:13:43;32.58;;;24.55;;
23988;SDS011;12202;52.136;5.592;2022-08-16T09:16:09;34.10;;;24.73;;
23988;SDS011;12202;52.136;5.592;2022-08-16T09:18:35;33.75;;;23.27;;
23988;SDS011;12202;52.136;5.592;2022-08-16T09:21:01;39.25;;;29.05;;
23988;SDS011;12202;52.136;5.592;2022-08-16T09:23:28;32.63;;;25.48;;
23988;SDS011;12202;52.136;5.592;2022-08-16T09:25:55;31.70;;;22.02;;
23988;SDS011;12202;52.136;5.592;2022-08-16T09:28:21;27.17;;;18.70;;
23988;SDS011;12202;52.136;5.592;2022-08-16T09:30:48;25.45;;;19.42;;
23988;SDS011;12202;52.136;5.592;2022-08-16T09:33:14;29.27;;;22.45;;
23988;SDS011;12202;52.136;5.592;2022-08-16T09:35:42;32.50;;;23.60;;
23988;SDS011;12202;52.136;5.592;2022-08-16T09:38:09;26.95;;;18.98;;
23988;SDS011;12202;52.136;5.592;2022-08-16T09:40:38;31.55;;;20.58;;
23988;SDS011;12202;52.136;5.592;2022-08-16T09:43:05;27.13;;;19.17;;
23988;SDS011;12202;52.136;5.592;2022-08-16T09:45:31;26.70;;;20.55;;
23988;SDS011;12202;52.136;5.592;2022-08-16T09:48:03;36.42;;;25.33;;
23988;SDS011;12202;52.136;5.592;2022-08-16T09:50:29;33.45;;;21.70;;
23988;SDS011;12202;52.136;5.592;2022-08-16T09:52:56;31.20;;;22.90;;
23988;SDS011;12202;52.136;5.592;2022-08-16T09:55:22;27.77;;;21.02;;
23988;SDS011;12202;52.136;5.592;2022-08-16T09:57:48;34.88;;;24.45;;
23988;SDS011;12202;52.136;5.592;2022-08-16T10:00:14;34.47;;;23.30;;
23988;SDS011;12202;52.136;5.592;2022-08-16T10:02:40;30.67;;;21.13;;
23988;SDS011;12202;52.136;5.592;2022-08-16T10:05:06;28.52;;;23.40;;
23988;SDS011;12202;52.136;5.592;2022-08-16T10:07:32;28.85;;;19.90;;
23988;SDS011;12202;52.136;5.592;2022-08-16T10:09:58;33.60;;;25.48;;
23988;SDS011;12202;52.136;5.592;2022-08-16T10:12:25;37.20;;;26.30;;
23988;SDS011;12202;52.136;5.592;2022-08-16T10:15:15;33.85;;;24.77;;
23988;SDS011;12202;52.136;5.592;2022-08-16T10:17:43;32.60;;;26.90;;
23988;SDS011;12202;52.136;5.592;2022-08-16T10:20:09;30.60;;;21.65;;
23988;SDS011;12202;52.136;5.592;2022-08-16T10:22:35;32.75;;;18.58;;
23988;SDS011;12202;52.136;5.592;2022-08-16T10:25:02;28.75;;;20.23;;
23988;SDS011;12202;52.136;5.592;2022-08-16T10:27:28;34.65;;;23.33;;
23988;SDS011;12202;52.136;5.592;2022-08-16T10:29:54;26.33;;;19.40;;
23988;SDS011;12202;52.136;5.592;2022-08-16T10:32:20;26.67;;;19.88;;
23988;SDS011;12202;52.136;5.592;2022-08-16T10:34:46;30.77;;;22.02;;
23988;SDS011;12202;52.136;5.592;2022-08-16T10:37:12;23.23;;;17.70;;
23988;SDS011;12202;52.136;5.592;2022-08-16T10:39:38;34.63;;;23.63;;
23988;SDS011;12202;52.136;5.592;2022-08-16T10:42:04;21.55;;;16.13;;
23988;SDS011;12202;52.136;5.592;2022-08-16T10:44:30;29.45;;;18.63;;
23988;SDS011;12202;52.136;5.592;2022-08-16T10:46:56;26.75;;;21.05;;
23988;SDS011;12202;52.136;5.592;2022-08-16T10:49:22;28.73;;;19.25;;
23988;SDS011;12202;52.136;5.592;2022-08-16T10:51:48;21.65;;;15.40;;
23988;SDS011;12202;52.136;5.592;2022-08-16T10:54:14;23.27;;;17.10;;
23988;SDS011;12202;52.136;5.592;2022-08-16T10:56:41;22.90;;;16.70;;
23988;SDS011;12202;52.136;5.592;2022-08-16T10:59:08;31.58;;;17.85;;
23988;SDS011;12202;52.136;5.592;2022-08-16T11:01:34;18.83;;;13.80;;
23988;SDS011;12202;52.136;5.592;2022-08-16T11:06:31;18.67;;;12.88;;
23988;SDS011;12202;52.136;5.592;2022-08-16T11:08:56;24.17;;;15.27;;
23988;SDS011;12202;52.136;5.592;2022-08-16T11:11:23;28.70;;;19.27;;
23988;SDS011;12202;52.136;5.592;2022-08-16T11:13:49;20.52;;;14.57;;
23988;SDS011;12202;52.136;5.592;2022-08-16T11:16:16;19.08;;;13.63;;
23988;SDS011;12202;52.136;5.592;2022-08-16T11:18:42;18.60;;;11.65;;
23988;SDS011;12202;52.136;5.592;2022-08-16T11:21:08;19.02;;;13.65;;
23988;SDS011;12202;52.136;5.592;2022-08-16T11:23:34;22.08;;;13.77;;
23988;SDS011;12202;52.136;5.592;2022-08-16T11:26:00;20.73;;;15.45;;
23988;SDS011;12202;52.136;5.592;2022-08-16T11:28:26;22.67;;;13.57;;
23988;SDS011;12202;52.136;5.592;2022-08-16T11:30:52;15.63;;;12.43;;
23988;SDS011;12202;52.136;5.592;2022-08-16T11:33:18;23.00;;;13.05;;
23988;SDS011;12202;52.136;5.592;2022-08-16T11:35:44;20.50;;;14.43;;
23988;SDS011;12202;52.136;5.592;2022-08-16T11:38:12;19.23;;;13.82;;
23988;SDS011;12202;52.136;5.592;2022-08-16T11:40:48;21.02;;;12.95;;
23988;SDS011;12202;52.136;5.592;2022-08-16T11:43:17;21.65;;;15.70;;
23988;SDS011;12202;52.136;5.592;2022-08-16T11:45:45;17.38;;;12.77;;
23988;SDS011;12202;52.136;5.592;2022-08-16T11:48:11;23.30;;;13.85;;
23988;SDS011;12202;52.136;5.592;2022-08-16T11:50:38;20.33;;;12.82;;
23988;SDS011;12202;52.136;5.592;2022-08-16T11:53:04;16.83;;;13.55;;
23988;SDS011;12202;52.136;5.592;2022-08-16T11:55:31;21.98;;;17.85;;
23988;SDS011;12202;52.136;5.592;2022-08-16T11:57:58;24.52;;;16.30;;
23988;SDS011;12202;52.136;5.592;2022-08-16T12:00:24;22.10;;;17.60;;
23988;SDS011;12202;52.136;5.592;2022-08-16T12:02:50;25.73;;;17.13;;
23988;SDS011;12202;52.136;5.592;2022-08-16T12:05:16;25.65;;;18.33;;
23988;SDS011;12202;52.136;5.592;2022-08-16T12:07:42;24.05;;;16.08;;
23988;SDS011;12202;52.136;5.592;2022-08-16T12:10:10;25.10;;;15.40;;
23988;SDS011;12202;52.136;5.592;2022-08-16T12:12:38;18.70;;;14.07;;
23988;SDS011;12202;52.136;5.592;2022-08-16T12:15:04;20.77;;;14.60;;
23988;SDS011;12202;52.136;5.592;2022-08-16T12:17:30;18.05;;;13.40;;
23988;SDS011;12202;52.136;5.592;2022-08-16T12:19:56;18.73;;;14.35;;
23988;SDS011;12202;52.136;5.592;2022-08-16T12:22:23;16.15;;;13.27;;
23988;SDS011;12202;52.136;5.592;2022-08-16T12:24:50;18.77;;;12.02;;
23988;SDS011;12202;52.136;5.592;2022-08-16T12:27:16;17.15;;;10.85;;
23988;SDS011;12202;52.136;5.592;2022-08-16T12:29:42;18.75;;;11.35;;
23988;SDS011;12202;52.136;5.592;2022-08-16T12:32:08;17.58;;;11.98;;
23988;SDS011;12202;52.136;5.592;2022-08-16T12:34:37;16.77;;;13.55;;
23988;SDS011;12202;52.136;5.592;2022-08-16T12:37:03;19.25;;;13.02;;
23988;SDS011;12202;52.136;5.592;2022-08-16T12:39:30;15.70;;;12.15;;
23988;SDS011;12202;52.136;5.592;2022-08-16T12:41:56;14.18;;;11.43;;
23988;SDS011;12202;52.136;5.592;2022-08-16T12:44:22;12.32;;;11.02;;
23988;SDS011;12202;52.136;5.592;2022-08-16T12:46:48;14.63;;;10.48;;
23988;SDS011;12202;52.136;5.592;2022-08-16T12:49:34;17.15;;;11.27;;
23988;SDS011;12202;52.136;5.592;2022-08-16T12:52:04;17.20;;;11.30;;
23988;SDS011;12202;52.136;5.592;2022-08-16T12:54:36;16.73;;;10.52;;
23988;SDS011;12202;52.136;5.592;2022-08-16T12:57:05;23.60;;;16.77;;
23988;SDS011;12202;52.136;5.592;2022-08-16T12:59:31;17.67;;;13.15;;
23988;SDS011;12202;52.136;5.592;2022-08-16T13:01:59;17.50;;;14.18;;
23988;SDS011;12202;52.136;5.592;2022-08-16T13:04:27;18.63;;;9.68;;
23988;SDS011;12202;52.136;5.592;2022-08-16T13:06:57;17.83;;;9.07;;
23988;SDS011;12202;52.136;5.592;2022-08-16T13:12:22;15.50;;;10.32;;
23988;SDS011;12202;52.136;5.592;2022-08-16T13:14:51;16.77;;;10.15;;
23988;SDS011;12202;52.136;5.592;2022-08-16T13:17:24;16.02;;;11.57;;
23988;SDS011;12202;52.136;5.592;2022-08-16T13:19:58;19.02;;;13.75;;
23988;SDS011;12202;52.136;5.592;2022-08-16T13:22:27;19.63;;;14.85;;
23988;SDS011;12202;52.136;5.592;2022-08-16T13:24:53;19.73;;;14.80;;
23988;SDS011;12202;52.136;5.592;2022-08-16T13:27:19;27.80;;;17.77;;
23988;SDS011;12202;52.136;5.592;2022-08-16T13:29:45;23.45;;;17.38;;
23988;SDS011;12202;52.136;5.592;2022-08-16T13:32:12;21.23;;;16.30;;
23988;SDS011;12202;52.136;5.592;2022-08-16T13:34:38;24.83;;;19.45;;
23988;SDS011;12202;52.136;5.592;2022-08-16T13:37:04;26.95;;;18.27;;
23988;SDS011;12202;52.136;5.592;2022-08-16T13:39:30;22.17;;;17.02;;
23988;SDS011;12202;52.136;5.592;2022-08-16T13:41:56;21.63;;;17.20;;
23988;SDS011;12202;52.136;5.592;2022-08-16T13:44:26;35.35;;;23.10;;
23988;SDS011;12202;52.136;5.592;2022-08-16T13:46:52;31.27;;;24.17;;
23988;SDS011;12202;52.136;5.592;2022-08-16T13:49:21;32.08;;;21.20;;
23988;SDS011;12202;52.136;5.592;2022-08-16T13:51:47;27.77;;;19.58;;
23988;SDS011;12202;52.136;5.592;2022-08-16T13:54:13;30.25;;;20.20;;
23988;SDS011;12202;52.136;5.592;2022-08-16T13:56:42;25.23;;;18.30;;
23988;SDS011;12202;52.136;5.592;2022-08-16T13:59:10;33.47;;;23.95;;
23988;SDS011;12202;52.136;5.592;2022-08-16T14:01:40;26.58;;;18.67;;
23988;SDS011;12202;52.136;5.592;2022-08-16T14:04:09;34.20;;;24.38;;
23988;SDS011;12202;52.136;5.592;2022-08-16T14:06:35;27.73;;;20.02;;
23988;SDS011;12202;52.136;5.592;2022-08-16T14:09:03;27.70;;;19.33;;
23988;SDS011;12202;52.136;5.592;2022-08-16T14:11:29;31.00;;;19.67;;
23988;SDS011;12202;52.136;5.592;2022-08-16T14:13:55;23.52;;;16.25;;
23988;SDS011;12202;52.136;5.592;2022-08-16T14:16:23;27.95;;;22.55;;
23988;SDS011;12202;52.136;5.592;2022-08-16T14:18:48;32.15;;;24.90;;
23988;SDS011;12202;52.136;5.592;2022-08-16T14:21:17;31.92;;;22.33;;
23988;SDS011;12202;52.136;5.592;2022-08-16T14:23:44;26.42;;;19.58;;
23988;SDS011;12202;52.136;5.592;2022-08-16T14:26:10;26.92;;;18.95;;